Azamara Quest — 9HOM8 — position and weather

sailwx.info

Track history (hours):
 
Tides and Currents Weather Stations Pressure Air Temp Water Temp Dewpoint Dewpoint Depression Visibility Wind Speed Wind Dir Waves Ship Positions

Azamara Quest

Last reported at 2020-Jun-19 09:43 UTC. Time now 2020-Jul-11 07:13 UTC.
Position N 54°24' W 005°16'.
Warning: this ship's position is 21 days out of date.

Length 181 m; draft 5.9 m.

Type: Passenger vessel. MMSI: 256216000.

Date/timePositionNaut miles runAvg speedWind from/ knotsBaromVisibWave heightAir tempDewpointWater temp
2020-Jun-19 09:43N 54°24' W 005°16'810.5
2020-Jun-19 08:59N 54°16' W 005°17'11910.8
2020-Jun-18 21:59N 52°18' W 005°37'510.6
2020-Jun-18 21:30N 52°13' W 005°39'4710.5
2020-Jun-18 16:58N 51°26' W 005°52'105 7.3
2020-Jun-18 02:29N 49°57' W 004°24'1010.2
2020-Jun-18 01:30N 49°60' W 004°09'3311.0
2020-Jun-17 22:30N 50°09' W 003°20'4012.7
2020-Jun-17 19:21N 50°22' W 002°20'411.2
2020-Jun-17 18:59N 50°24' W 002°14'510.9
2020-Jun-17 18:29N 50°25' W 002°06'1010.5
2020-Jun-17 17:30N 50°31' W 001°53'2610.3
2020-Jun-17 15:00N 50°46' W 001°20'4 8.2
2020-Jun-17 14:30N 50°50' W 001°19'5 3.5
2020-Jun-17 13:01N 50°54' W 001°25'0 0.0
2020-Jun-17 11:31N 50°54' W 001°25'0 0.0
2020-Jun-17 10:31N 50°54' W 001°25'0 0.0
2020-Jun-17 10:01N 50°54' W 001°25'12 2.5
2020-Jun-17 05:00N 50°46' W 001°11'511.0
2020-Jun-17 04:30N 50°44' W 001°02'25 9.2
2020-Jun-17 01:47N 50°19' W 001°08'21 9.4
2020-Jun-16 23:30N 50°06' W 001°35'63 8.4
2020-Jun-16 16:01N 49°44' W 003°06'  
2020-Jun-13 22:30N 39°13' W 009°52'3111.9
2020-Jun-13 19:54N 38°42' W 009°50'2311.7
2020-Jun-13 17:56N 38°20' W 009°45'511.9
2020-Jun-13 17:30N 38°14' W 009°44'3712.2
2020-Jun-13 14:30N 37°39' W 009°33'8110.7
2020-Jun-13 07:00N 36°36' W 008°30'157 6.3
2020-Jun-12 06:00N 36°05' W 005°19'3 6.6
2020-Jun-12 05:30N 36°04' W 005°15'8 3.1
2020-Jun-12 03:00N 36°05' W 005°05'2 4.3
2020-Jun-12 02:30N 36°06' W 005°03'15 9.2
2020-Jun-12 00:51N 36°08' W 004°44'25110.1
2020-Jun-11 00:00N 36°48' E 000°24'32913.7 200 / 141014.5 20.020.021.0
2020-Jun-10 00:00N 37°42' E 007°12'   270 / 21017.6 19.019.021.0
Track history (hours):
 
Tides and Currents Weather Stations Pressure Air Temp Water Temp Dewpoint Dewpoint Depression Visibility Wind Speed Wind Dir Waves Ship Positions

Azamara Quest

Last reported at 2020-Jun-19 09:43 UTC. Time now 2020-Jul-11 07:13 UTC.
Position N 54°24' W 005°16'.
Warning: this ship's position is 21 days out of date.

Length 181 m; draft 5.9 m.

Type: Passenger vessel. MMSI: 256216000.

Date/timePositionNaut miles runAvg speedWind from/ knotsBaromVisibWave heightAir tempDewpointWater temp
2020-Jun-19 09:43N 54°24' W 005°16'810.5
2020-Jun-19 08:59N 54°16' W 005°17'11910.8
2020-Jun-18 21:59N 52°18' W 005°37'510.6
2020-Jun-18 21:30N 52°13' W 005°39'4710.5
2020-Jun-18 16:58N 51°26' W 005°52'105 7.3
2020-Jun-18 02:29N 49°57' W 004°24'1010.2
2020-Jun-18 01:30N 49°60' W 004°09'3311.0
2020-Jun-17 22:30N 50°09' W 003°20'4012.7
2020-Jun-17 19:21N 50°22' W 002°20'411.2
2020-Jun-17 18:59N 50°24' W 002°14'510.9
2020-Jun-17 18:29N 50°25' W 002°06'1010.5
2020-Jun-17 17:30N 50°31' W 001°53'2610.3
2020-Jun-17 15:00N 50°46' W 001°20'4 8.2
2020-Jun-17 14:30N 50°50' W 001°19'5 3.5
2020-Jun-17 13:01N 50°54' W 001°25'0 0.0
2020-Jun-17 11:31N 50°54' W 001°25'0 0.0
2020-Jun-17 10:31N 50°54' W 001°25'0 0.0
2020-Jun-17 10:01N 50°54' W 001°25'12 2.5
2020-Jun-17 05:00N 50°46' W 001°11'511.0
2020-Jun-17 04:30N 50°44' W 001°02'25 9.2
2020-Jun-17 01:47N 50°19' W 001°08'21 9.4
2020-Jun-16 23:30N 50°06' W 001°35'63 8.4
2020-Jun-16 16:01N 49°44' W 003°06'  
2020-Jun-13 22:30N 39°13' W 009°52'3111.9
2020-Jun-13 19:54N 38°42' W 009°50'2311.7
2020-Jun-13 17:56N 38°20' W 009°45'511.9
2020-Jun-13 17:30N 38°14' W 009°44'3712.2
2020-Jun-13 14:30N 37°39' W 009°33'8110.7
2020-Jun-13 07:00N 36°36' W 008°30'157 6.3
2020-Jun-12 06:00N 36°05' W 005°19'3 6.6
2020-Jun-12 05:30N 36°04' W 005°15'8 3.1
2020-Jun-12 03:00N 36°05' W 005°05'2 4.3
2020-Jun-12 02:30N 36°06' W 005°03'15 9.2
2020-Jun-12 00:51N 36°08' W 004°44'25110.1
2020-Jun-11 00:00N 36°48' E 000°24'32913.7 200 / 141014.5 20.020.021.0
2020-Jun-10 00:00N 37°42' E 007°12'   270 / 21017.6 19.019.021.0

Dump ship's entire track history